M I D A S
Marine Information and Data Acquisition System
Tripno 1934 of the Zeeleeuw from 2010-08-10 06:22:44 to 2010-08-10 14:52:31
Back to CruiseResearch ActivitiesStationsMapUnderway DataData graphs

EquipmentUnitsComment
TimeDGPSUTC
LatitudeDGPSDM.mWGS84
LongitudeDGPSDM.mWGS84
HeadingGyrodeg 
SOGDGPSknotsSpeed over ground
COGDGPSdegCourse over ground
DepthEcho soundermeters200 kHz
Missing or incorrect values are displayed as -999
Navigation data collected by the RV Zeeleeuw from 2010-08-10 06:19:19 to 2010-08-10 14:59:33
                                                                                    Next 1000 lines
Time Latitude Longitude Heading SOG COG Depth
2010-08-10 06:19:29 51°13.662 2°55.959 112.7 0.9 290 4.7
2010-08-10 06:19:33 51°13.662 2°55.957 112.7 1.3 291 4.6
2010-08-10 06:19:38 51°13.663 2°55.953 112.9 1.9 290 4.8
2010-08-10 06:19:43 51°13.665 2°55.949 113.3 2.2 293 4.8
2010-08-10 06:19:49 51°13.666 2°55.942 113.6 2.6 293 -999
2010-08-10 06:19:54 51°13.668 2°55.937 114.5 2.7 295 -999
2010-08-10 06:20:00 51°13.67 2°55.929 115.8 3.2 298 -999
2010-08-10 06:20:05 51°13.673 2°55.923 116.8 3.5 299 -999
2010-08-10 06:20:10 51°13.675 2°55.915 117.5 3.9 300 -999
2010-08-10 06:20:15 51°13.678 2°55.907 117.8 4.1 301 -999
2010-08-10 06:20:20 51°13.681 2°55.899 118 4.2 301 -999
2010-08-10 06:20:25 51°13.684 2°55.891 117.5 4.2 298 -999
2010-08-10 06:20:29 51°13.686 2°55.884 115.2 4.1 295 -999
2010-08-10 06:20:35 51°13.688 2°55.875 111.9 4 292 -999
2010-08-10 06:20:39 51°13.69 2°55.868 108.1 4 288 -999
2010-08-10 06:20:45 51°13.691 2°55.858 105 4 285 -999
2010-08-10 06:20:50 51°13.693 2°55.849 103.1 4 282 -999
2010-08-10 06:20:55 51°13.694 2°55.84 101.2 4 281 -999
2010-08-10 06:21:00 51°13.695 2°55.832 99.5 4 279 -999
2010-08-10 06:21:05 51°13.695 2°55.823 97.9 4 279 -999
2010-08-10 06:21:10 51°13.696 2°55.814 96.3 3.9 277 -999
2010-08-10 06:21:15 51°13.696 2°55.806 94.3 3.9 276 -999
2010-08-10 06:21:20 51°13.696 2°55.797 92.1 3.9 273 -999
2010-08-10 06:21:25 51°13.696 2°55.788 90.6 3.9 272 -999
2010-08-10 06:21:30 51°13.697 2°55.78 89.2 3.9 271 -999
2010-08-10 06:21:35 51°13.696 2°55.771 87.9 3.9 270 -999
2010-08-10 06:21:40 51°13.696 2°55.763 86.6 3.8 269 -999
2010-08-10 06:21:45 51°13.696 2°55.756 85.5 3.5 268 -999
2010-08-10 06:21:50 51°13.696 2°55.749 84.2 2.9 270 -999
2010-08-10 06:21:55 51°13.696 2°55.746 82.8 1.5 269 -999
2010-08-10 06:22:00 51°13.697 2°55.745 79.1 0.6 284 -999
2010-08-10 06:22:05 51°13.697 2°55.744 72.9 0.5 316 -999
2010-08-10 06:22:10 51°13.698 2°55.745 67.4 0.4 6 11.4
2010-08-10 06:22:14 51°13.698 2°55.745 63.2 0.7 34 11.3
2010-08-10 06:22:19 51°13.699 2°55.746 59.7 0.7 28 11.2
2010-08-10 06:22:24 51°13.7 2°55.747 54.8 0.5 24 11.1
2010-08-10 06:22:30 51°13.7 2°55.746 50.4 0.1 324 11.1
2010-08-10 06:22:34 51°13.7 2°55.746 47.3 0.4 256 11.1
2010-08-10 06:22:39 51°13.699 2°55.744 44.4 0.7 225 11.1
2010-08-10 06:22:44 51°13.698 2°55.742 42.1 1.1 226 11.3
2010-08-10 06:22:48 51°13.697 2°55.741 39.9 1.4 220 11.5
2010-08-10 06:22:54 51°13.695 2°55.739 38 1.3 221 11.4
2010-08-10 06:22:58 51°13.694 2°55.737 36.8 1.2 219 11.2
2010-08-10 06:23:03 51°13.693 2°55.736 36.1 1.2 222 -999
2010-08-10 06:23:09 51°13.691 2°55.734 35.7 0.9 217 -999
2010-08-10 06:23:15 51°13.691 2°55.733 34.7 0.5 222 -999
2010-08-10 06:23:20 51°13.691 2°55.733 32.1 0.2 277 -999
2010-08-10 06:23:25 51°13.691 2°55.733 28.5 0.3 2 -999
2010-08-10 06:23:30 51°13.692 2°55.733 24.4 0.7 1 -999
2010-08-10 06:23:35 51°13.694 2°55.734 19.5 1 7 -999
2010-08-10 06:23:40 51°13.696 2°55.734 14.2 1.4 2 11.6
2010-08-10 06:23:45 51°13.698 2°55.734 9.6 1.7 359 -999
2010-08-10 06:23:50 51°13.701 2°55.733 3.9 1.9 354 -999
2010-08-10 06:23:55 51°13.704 2°55.732 357.2 2.2 351 11.3
2010-08-10 06:24:00 51°13.707 2°55.731 352.4 2.1 346 11.3
2010-08-10 06:24:05 51°13.711 2°55.728 347.5 3.3 340 10.9
2010-08-10 06:24:10 51°13.716 2°55.725 343.2 3.8 338 10.8
2010-08-10 06:24:14 51°13.721 2°55.722 339.2 4.6 337 11
2010-08-10 06:24:19 51°13.728 2°55.717 337.2 5.2 335 11.2
2010-08-10 06:24:24 51°13.735 2°55.711 336.1 5.8 335 11.1
2010-08-10 06:24:30 51°13.745 2°55.704 335.8 6.6 333 11
2010-08-10 06:24:35 51°13.754 2°55.696 335.1 7.1 333 10.8
2010-08-10 06:24:39 51°13.762 2°55.69 334.7 7.7 333 10.5
2010-08-10 06:24:44 51°13.772 2°55.682 334.7 8.1 333 10.7
2010-08-10 06:24:49 51°13.783 2°55.674 335 8.5 334 10.4
2010-08-10 06:24:54 51°13.794 2°55.665 335.5 8.8 334 10.1
2010-08-10 06:24:59 51°13.805 2°55.656 335.7 9.1 333 10.1
2010-08-10 06:25:03 51°13.814 2°55.649 335.1 9.3 334 10.4
2010-08-10 06:25:08 51°13.826 2°55.639 335.4 9.5 335 10.4
2010-08-10 06:25:14 51°13.841 2°55.629 336.7 9.7 335 10.1
2010-08-10 06:25:19 51°13.853 2°55.619 336.9 9.8 334 10
2010-08-10 06:25:23 51°13.863 2°55.612 336.5 9.9 335 9.8
2010-08-10 06:25:28 51°13.876 2°55.602 337.3 10 336 9.6
2010-08-10 06:25:33 51°13.889 2°55.593 338.3 10.2 336 9.3
2010-08-10 06:25:38 51°13.902 2°55.584 338.3 10.2 336 9.4
2010-08-10 06:25:43 51°13.915 2°55.575 338.3 10.3 337 9.4
2010-08-10 06:25:47 51°13.925 2°55.568 339 10.4 338 9.5
2010-08-10 06:25:52 51°13.939 2°55.559 339.9 10.5 338 9.8
2010-08-10 06:25:57 51°13.953 2°55.551 340.2 10.6 339 9.7
2010-08-10 06:26:02 51°13.966 2°55.542 340 10.6 338 10
2010-08-10 06:26:07 51°13.98 2°55.534 340 10.6 339 9.8
2010-08-10 06:26:11 51°13.991 2°55.526 340.2 10.6 337 9.7
2010-08-10 06:26:16 51°14.004 2°55.517 339.3 10.6 336 9.4
2010-08-10 06:26:21 51°14.018 2°55.507 338.8 10.6 337 9.6
2010-08-10 06:26:27 51°14.034 2°55.497 339.6 10.6 338 9.4
2010-08-10 06:26:31 51°14.045 2°55.489 339.8 10.7 336 9.6
2010-08-10 06:26:36 51°14.059 2°55.479 339 10.8 336 9.6
2010-08-10 06:26:41 51°14.073 2°55.47 339 10.9 337 9.8
2010-08-10 06:26:46 51°14.087 2°55.46 338.8 11.1 335 9.7
2010-08-10 06:26:51 51°14.101 2°55.449 338 11.2 334 9.8
2010-08-10 06:26:55 51°14.112 2°55.44 337.6 11.3 334 9.8
2010-08-10 06:27:01 51°14.129 2°55.426 336.4 11.3 332 9.8
2010-08-10 06:27:06 51°14.143 2°55.415 335.8 11.3 333 9.7
2010-08-10 06:27:11 51°14.156 2°55.403 334.8 11.3 331 9.8
2010-08-10 06:28:01 51°14.292 2°55.282 331.7 11.1 329 9.2
2010-08-10 06:28:22 51°14.348 2°55.228 331.3 11.2 327 9.2
2010-08-10 06:28:48 51°14.416 2°55.159 331.1 11.2 328 9.1
2010-08-10 06:29:00 51°14.448 2°55.128 330.3 11.2 328 9.4
2010-08-10 06:29:04 51°14.458 2°55.117 329.9 11.2 327 8.9
2010-08-10 06:29:24 51°14.511 2°55.062 328.3 11.4 326 9.4
2010-08-10 06:30:47 51°14.624 2°54.666 279 12.9 269 9.3
2010-08-10 06:30:52 51°14.622 2°54.638 273.6 12.9 264 8.4
2010-08-10 06:30:57 51°14.619 2°54.61 267.9 12.8 259 8.4
2010-08-10 06:31:02 51°14.614 2°54.583 262.1 12.8 253 8.3
2010-08-10 06:31:07 51°14.608 2°54.556 256.4 12.9 249 8.4
2010-08-10 06:31:12 51°14.6 2°54.53 251.5 13 246 8.3
2010-08-10 06:31:17 51°14.592 2°54.504 247.4 13.1 243 8.3
2010-08-10 06:31:22 51°14.583 2°54.479 244 13.3 241 8.3
2010-08-10 06:31:26 51°14.576 2°54.458 241.3 13.4 239 8.4
2010-08-10 06:31:32 51°14.564 2°54.428 240.4 13.6 239 8.3
2010-08-10 06:31:36 51°14.556 2°54.407 240 13.6 238 8.2
2010-08-10 06:31:42 51°14.545 2°54.376 239.8 13.7 240 8.1
2010-08-10 06:31:48 51°14.533 2°54.344 240.5 13.8 240 8.1
2010-08-10 06:31:53 51°14.524 2°54.317 241 13.8 240 8.1
2010-08-10 06:31:57 51°14.516 2°54.296 241.2 13.9 241 8.1
2010-08-10 06:32:02 51°14.507 2°54.269 241.6 13.9 241 8.1
2010-08-10 06:32:07 51°14.497 2°54.242 241.2 14 241 8
2010-08-10 06:32:12 51°14.488 2°54.215 241.5 14 240 8
2010-08-10 06:32:17 51°14.478 2°54.189 241.5 14 240 8
2010-08-10 06:32:22 51°14.468 2°54.162 241.4 14 240 7.9
2010-08-10 06:32:27 51°14.458 2°54.135 241.3 14 240 7.8
2010-08-10 06:32:32 51°14.449 2°54.108 241.1 14 240 7.9
2010-08-10 06:32:37 51°14.439 2°54.082 240.6 14 238 7.8
2010-08-10 06:32:43 51°14.427 2°54.049 240.2 14.1 239 7.8
2010-08-10 06:32:48 51°14.417 2°54.023 240.1 14.1 239 7.7
2010-08-10 06:32:53 51°14.407 2°53.996 240.4 14.1 240 7.8
2010-08-10 06:32:57 51°14.399 2°53.974 241 14.1 240 7.8
2010-08-10 06:33:01 51°14.391 2°53.952 241.1 14.1 240 7.8
2010-08-10 06:33:07 51°14.379 2°53.92 241.2 14.1 240 7.8
2010-08-10 06:33:13 51°14.368 2°53.887 241.1 14.1 240 7.8
2010-08-10 06:33:17 51°14.36 2°53.866 241.1 14.2 240 7.7
2010-08-10 06:33:22 51°14.35 2°53.839 240.7 14.2 240 7.8
2010-08-10 06:33:27 51°14.34 2°53.812 241 14.2 240 7.8
2010-08-10 06:33:33 51°14.328 2°53.779 241.1 14.3 239 7.9
2010-08-10 06:33:37 51°14.32 2°53.757 240.8 14.3 240 7.9
2010-08-10 06:33:42 51°14.31 2°53.73 240.8 14.3 240 7.9
2010-08-10 06:33:47 51°14.3 2°53.703 241.1 14.3 240 8
2010-08-10 06:33:52 51°14.29 2°53.675 241 14.3 239 7.9
2010-08-10 06:33:57 51°14.28 2°53.648 240.6 14.4 239 8
2010-08-10 06:34:02 51°14.269 2°53.621 240.3 14.4 239 7.9
2010-08-10 06:34:07 51°14.259 2°53.593 240.3 14.4 239 7.9
2010-08-10 06:34:12 51°14.249 2°53.566 240.5 14.4 240 8.1
2010-08-10 06:34:17 51°14.239 2°53.538 241.1 14.4 239 8.1
2010-08-10 06:34:21 51°14.231 2°53.516 241 14.4 239 8.1
2010-08-10 06:34:27 51°14.219 2°53.483 241 14.5 240 8.1
2010-08-10 06:34:32 51°14.208 2°53.456 240.7 14.5 239 8.2
2010-08-10 06:34:37 51°14.198 2°53.428 240.5 14.4 240 8.1
2010-08-10 06:34:42 51°14.188 2°53.401 240.6 14.5 238 8.3
2010-08-10 06:34:47 51°14.177 2°53.373 240.2 14.5 239 8.2
2010-08-10 06:34:53 51°14.164 2°53.341 239.8 14.6 238 8.3
2010-08-10 06:34:57 51°14.156 2°53.319 239.6 14.6 238 8.3
2010-08-10 06:35:02 51°14.145 2°53.292 239.5 14.5 238 8.3
2010-08-10 06:35:07 51°14.135 2°53.264 239.5 14.5 239 8.4
2010-08-10 06:35:12 51°14.124 2°53.237 239.7 14.5 239 8.4
2010-08-10 06:35:17 51°14.114 2°53.209 240.1 14.6 240 8.4
2010-08-10 06:35:22 51°14.104 2°53.182 240.3 14.6 239 8.5
2010-08-10 06:35:27 51°14.094 2°53.154 240.3 14.6 239 8.5
2010-08-10 06:35:32 51°14.083 2°53.126 240.3 14.6 239 8.4
2010-08-10 06:35:37 51°14.073 2°53.099 239.9 14.5 239 8.4
2010-08-10 06:35:42 51°14.062 2°53.071 239.8 14.6 239 8.5
2010-08-10 06:35:47 51°14.052 2°53.043 240.2 14.6 239 8.6
2010-08-10 06:35:52 51°14.041 2°53.016 240.1 14.6 239 8.5
2010-08-10 06:35:57 51°14.031 2°52.988 240.3 14.6 239 8.6
2010-08-10 06:36:01 51°14.022 2°52.966 240.3 14.6 239 8.6
2010-08-10 06:36:07 51°14.01 2°52.933 240.3 14.6 239 8.6
2010-08-10 06:36:12 51°14 2°52.905 240.3 14.6 239 8.6
2010-08-10 06:36:17 51°13.989 2°52.878 240.2 14.6 239 8.5
2010-08-10 06:36:22 51°13.979 2°52.85 239.7 14.6 239 8.7
2010-08-10 06:36:27 51°13.968 2°52.822 239.9 14.6 239 8.7
2010-08-10 06:36:32 51°13.958 2°52.795 239.7 14.6 239 8.7
2010-08-10 06:36:37 51°13.947 2°52.767 239.7 14.6 239 8.7
2010-08-10 06:36:41 51°13.939 2°52.745 240 14.6 239 8.6
2010-08-10 06:36:47 51°13.926 2°52.712 239.8 14.6 239 8.6
2010-08-10 06:36:52 51°13.916 2°52.684 239.7 14.6 239 8.8
2010-08-10 06:36:57 51°13.905 2°52.656 240.1 14.6 239 8.6
2010-08-10 06:37:02 51°13.895 2°52.629 239.8 14.6 239 8.7
2010-08-10 06:37:07 51°13.884 2°52.601 240 14.6 239 8.7
2010-08-10 06:37:12 51°13.874 2°52.574 240.3 14.6 239 8.7
2010-08-10 06:37:17 51°13.864 2°52.546 240.3 14.6 239 8.8
2010-08-10 06:37:21 51°13.855 2°52.524 240.3 14.6 239 8.9
2010-08-10 06:37:27 51°13.843 2°52.491 239.9 14.6 239 8.8
2010-08-10 06:37:32 51°13.832 2°52.463 239.9 14.6 239 8.8
2010-08-10 06:37:37 51°13.822 2°52.436 239.7 14.6 239 8.9
2010-08-10 06:37:42 51°13.811 2°52.408 239.5 14.6 238 8.7
2010-08-10 06:37:47 51°13.8 2°52.38 239.5 14.6 239 8.8
2010-08-10 06:37:53 51°13.788 2°52.347 239.7 14.6 239 8.8
2010-08-10 06:37:57 51°13.779 2°52.325 239.9 14.6 239 8.7
2010-08-10 06:38:02 51°13.769 2°52.297 240.1 14.6 239 8.8
2010-08-10 06:38:07 51°13.758 2°52.27 240.1 14.6 238 8.9
2010-08-10 06:38:13 51°13.745 2°52.237 239.7 14.6 238 9
2010-08-10 06:38:17 51°13.737 2°52.215 239.6 14.6 238 8.8
2010-08-10 06:38:22 51°13.726 2°52.187 239.1 14.6 239 8.8
2010-08-10 06:38:27 51°13.716 2°52.16 239.5 14.6 239 8.9
2010-08-10 06:38:32 51°13.705 2°52.132 239.6 14.7 239 8.9
2010-08-10 06:38:37 51°13.694 2°52.104 239.7 14.7 239 8.8
2010-08-10 06:38:42 51°13.684 2°52.077 240 14.7 239 9
2010-08-10 06:38:47 51°13.673 2°52.049 239.8 14.6 238 8.8
2010-08-10 06:38:52 51°13.663 2°52.021 239.8 14.6 239 8.9
2010-08-10 06:38:57 51°13.652 2°51.994 239.7 14.7 238 9
2010-08-10 06:39:01 51°13.644 2°51.972 239.6 14.7 239 8.9
2010-08-10 06:39:07 51°13.631 2°51.939 239.4 14.7 238 9
2010-08-10 06:39:12 51°13.62 2°51.911 239.4 14.7 239 8.8
2010-08-10 06:39:17 51°13.609 2°51.883 239.5 14.7 238 8.9
2010-08-10 06:39:22 51°13.599 2°51.855 239.3 14.7 239 8.9
2010-08-10 06:39:27 51°13.588 2°51.828 239.8 14.7 239 9
2010-08-10 06:39:33 51°13.576 2°51.794 239.8 14.7 239 9
2010-08-10 06:39:37 51°13.567 2°51.772 240.1 14.7 238 8.8
2010-08-10 06:39:42 51°13.557 2°51.744 240.1 14.7 239 9.1
2010-08-10 06:39:47 51°13.546 2°51.716 240.1 14.7 239 8.9
2010-08-10 06:39:52 51°13.536 2°51.688 240 14.7 240 9
2010-08-10 06:39:57 51°13.525 2°51.66 240.3 14.7 239 9
2010-08-10 06:40:02 51°13.515 2°51.633 240.1 14.7 239 9
2010-08-10 06:40:07 51°13.504 2°51.605 239.8 14.7 239 9
2010-08-10 06:40:12 51°13.494 2°51.577 239.9 14.7 239 8.9
2010-08-10 06:40:17 51°13.483 2°51.549 239.9 14.8 239 9
2010-08-10 06:40:22 51°13.473 2°51.521 239.8 14.7 239 9.1
2010-08-10 06:40:27 51°13.462 2°51.493 240.1 14.7 239 9
2010-08-10 06:40:32 51°13.452 2°51.465 239.9 14.7 239 9.1
2010-08-10 06:40:37 51°13.441 2°51.437 239.8 14.8 239 9.1
2010-08-10 06:40:41 51°13.433 2°51.415 240 14.8 239 9
2010-08-10 06:40:47 51°13.421 2°51.381 239.9 14.8 240 9.1
2010-08-10 06:40:52 51°13.41 2°51.353 240.1 14.8 240 9.1
2010-08-10 06:40:57 51°13.4 2°51.325 240.4 14.7 239 9.1
2010-08-10 06:41:02 51°13.39 2°51.297 240.4 14.7 240 9.3
2010-08-10 06:41:07 51°13.379 2°51.269 240.7 14.7 239 9.2
2010-08-10 06:41:12 51°13.369 2°51.241 240.3 14.7 240 9.2
2010-08-10 06:41:17 51°13.358 2°51.213 240.3 14.7 239 9.3
2010-08-10 06:41:21 51°13.35 2°51.191 240.1 14.7 239 9.2
2010-08-10 06:41:27 51°13.338 2°51.158 240 14.7 239 9.2
2010-08-10 06:41:32 51°13.327 2°51.13 239.7 14.7 239 9.2
2010-08-10 06:41:37 51°13.316 2°51.102 239.6 14.7 239 9.2
2010-08-10 06:41:42 51°13.306 2°51.074 239.6 14.7 239 9.3
2010-08-10 06:41:47 51°13.295 2°51.046 239.7 14.7 239 9.2
2010-08-10 06:41:53 51°13.283 2°51.013 240.1 14.7 240 9.3
2010-08-10 06:41:57 51°13.275 2°50.991 240.5 14.7 240 9.2
2010-08-10 06:42:02 51°13.264 2°50.962 240.7 14.7 239 9.3
2010-08-10 06:42:07 51°13.254 2°50.934 240.7 14.7 240 9.3
2010-08-10 06:42:12 51°13.244 2°50.906 240.9 14.7 239 9.3
2010-08-10 06:42:17 51°13.233 2°50.878 240.8 14.7 239 9.4
2010-08-10 06:42:22 51°13.223 2°50.851 240.4 14.7 239 9.3
2010-08-10 06:42:27 51°13.212 2°50.823 240.1 14.7 239 9.4
2010-08-10 06:42:32 51°13.202 2°50.795 239.9 14.6 238 9.4
2010-08-10 06:42:37 51°13.191 2°50.768 239.6 14.7 239 9.5
2010-08-10 06:42:42 51°13.181 2°50.74 239.6 14.7 239 9.4
2010-08-10 06:42:47 51°13.17 2°50.712 239.9 14.7 239 9.4
2010-08-10 06:42:52 51°13.16 2°50.684 240.1 14.7 240 9.4
2010-08-10 06:42:57 51°13.15 2°50.656 240.3 14.7 239 9.6
2010-08-10 06:43:01 51°13.141 2°50.634 240.3 14.7 239 9.4
2010-08-10 06:43:07 51°13.129 2°50.6 240.3 14.7 240 9.5
2010-08-10 06:43:12 51°13.119 2°50.572 240.5 14.7 240 9.5
2010-08-10 06:43:17 51°13.109 2°50.544 240.8 14.7 240 9.5
2010-08-10 06:43:22 51°13.098 2°50.516 240.8 14.7 240 9.4
2010-08-10 06:43:27 51°13.088 2°50.488 240.6 14.7 240 9.5
2010-08-10 06:43:33 51°13.076 2°50.454 240.4 14.7 240 9.6
2010-08-10 06:43:37 51°13.067 2°50.432 240.4 14.7 240 9.5
2010-08-10 06:43:42 51°13.057 2°50.404 240.6 14.7 240 9.7
2010-08-10 06:43:47 51°13.047 2°50.376 240.5 14.7 239 9.6
2010-08-10 06:43:52 51°13.037 2°50.347 240.4 14.7 240 9.5
2010-08-10 06:43:57 51°13.026 2°50.319 240.6 14.8 239 9.7
2010-08-10 06:44:02 51°13.016 2°50.291 240.7 14.8 240 9.6
2010-08-10 06:44:07 51°13.006 2°50.263 240.7 14.8 240 9.7
2010-08-10 06:44:12 51°12.995 2°50.235 240.5 14.7 239 9.7
2010-08-10 06:44:17 51°12.985 2°50.207 240.3 14.7 240 9.7
2010-08-10 06:44:22 51°12.974 2°50.179 240.3 14.7 239 9.7
2010-08-10 06:44:27 51°12.964 2°50.151 240.2 14.8 240 9.7
2010-08-10 06:44:32 51°12.954 2°50.123 240.2 14.8 239 9.7
2010-08-10 06:44:37 51°12.943 2°50.094 240.1 14.8 240 9.7
2010-08-10 06:44:41 51°12.935 2°50.072 240.2 14.8 240 9.8
2010-08-10 06:44:47 51°12.922 2°50.038 240.6 14.8 240 9.7
2010-08-10 06:44:52 51°12.912 2°50.01 240.6 14.8 240 9.8
2010-08-10 06:44:57 51°12.901 2°49.982 240.4 14.8 239 9.8
2010-08-10 06:45:02 51°12.891 2°49.953 240.4 14.8 239 9.8
2010-08-10 06:45:07 51°12.881 2°49.925 240.2 14.9 239 9.8
2010-08-10 06:45:12 51°12.87 2°49.897 240.2 14.8 239 9.7
2010-08-10 06:45:17 51°12.859 2°49.869 240.1 14.9 239 9.9
2010-08-10 06:45:21 51°12.851 2°49.846 239.6 14.9 239 9.8
2010-08-10 06:45:27 51°12.838 2°49.812 239.7 14.9 239 9.8
2010-08-10 06:45:32 51°12.828 2°49.784 239.7 14.9 239 9.9
2010-08-10 06:45:37 51°12.817 2°49.756 239.8 14.9 239 9.9
2010-08-10 06:45:42 51°12.807 2°49.728 239.7 14.9 240 9.9
2010-08-10 06:45:47 51°12.796 2°49.699 240.1 14.9 240 10
2010-08-10 06:45:53 51°12.784 2°49.665 240.4 14.8 240 9.9
2010-08-10 06:45:57 51°12.775 2°49.643 240.7 14.8 239 10
2010-08-10 06:46:02 51°12.765 2°49.614 240.5 14.9 240 9.9
2010-08-10 06:46:07 51°12.755 2°49.586 240.5 14.8 240 9.9
2010-08-10 06:46:12 51°12.744 2°49.558 240.5 14.8 240 9.9
2010-08-10 06:46:17 51°12.734 2°49.529 240.5 14.8 240 10
2010-08-10 06:46:22 51°12.724 2°49.501 240.9 14.8 240 9.9
2010-08-10 06:46:27 51°12.713 2°49.473 240.4 14.8 240 10
2010-08-10 06:46:32 51°12.703 2°49.445 240.3 14.8 239 9.9
2010-08-10 06:46:37 51°12.692 2°49.417 239.9 14.8 240 10
2010-08-10 06:46:42 51°12.682 2°49.389 240.1 14.8 239 10.1
2010-08-10 06:46:47 51°12.672 2°49.361 240.2 14.8 240 10.1
2010-08-10 06:46:52 51°12.661 2°49.332 240.4 14.7 240 10.2
2010-08-10 06:46:57 51°12.651 2°49.304 240.6 14.7 240 10.1
2010-08-10 06:47:01 51°12.643 2°49.282 240.8 14.7 240 10.1
2010-08-10 06:47:07 51°12.63 2°49.248 240.5 14.7 239 10.1
2010-08-10 06:47:12 51°12.62 2°49.22 240.4 14.7 240 10.2
2010-08-10 06:47:17 51°12.61 2°49.192 240.2 14.7 239 10.1
2010-08-10 06:47:22 51°12.599 2°49.165 239.7 14.6 239 10.1
2010-08-10 06:47:27 51°12.589 2°49.137 239.9 14.6 239 10.1
2010-08-10 06:47:32 51°12.579 2°49.109 239.9 14.6 240 10.1
2010-08-10 06:47:37 51°12.568 2°49.082 240.2 14.6 239 10.2
2010-08-10 06:47:42 51°12.558 2°49.054 240.4 14.6 240 10.2
2010-08-10 06:47:47 51°12.548 2°49.026 240.5 14.5 240 10.2
2010-08-10 06:47:52 51°12.538 2°48.998 240.7 14.6 240 10.2
2010-08-10 06:47:57 51°12.527 2°48.971 240.4 14.6 239 10.3
2010-08-10 06:48:02 51°12.517 2°48.943 240.2 14.6 239 10
2010-08-10 06:48:07 51°12.507 2°48.915 240.1 14.5 239 10.2
2010-08-10 06:48:13 51°12.494 2°48.882 240.1 14.6 239 10.2
2010-08-10 06:48:17 51°12.486 2°48.86 240.1 14.5 239 10.1
2010-08-10 06:48:22 51°12.476 2°48.833 240 14.5 239 10.1
2010-08-10 06:48:27 51°12.465 2°48.805 240 14.5 239 10.1
2010-08-10 06:48:32 51°12.455 2°48.777 240 14.5 239 10.1
2010-08-10 06:48:37 51°12.445 2°48.75 240.2 14.5 239 10.2
2010-08-10 06:48:42 51°12.434 2°48.722 240 14.5 239 10.1
2010-08-10 06:48:47 51°12.424 2°48.694 240.2 14.5 240 10.2
2010-08-10 06:48:52 51°12.414 2°48.667 240.4 14.5 240 10.1
2010-08-10 06:48:57 51°12.403 2°48.639 240.4 14.6 240 10.1
2010-08-10 06:49:01 51°12.395 2°48.617 240.5 14.6 240 10.2
2010-08-10 06:49:07 51°12.383 2°48.584 240.5 14.5 239 10.1
2010-08-10 06:49:12 51°12.373 2°48.556 240.2 14.5 240 10.2
2010-08-10 06:49:17 51°12.362 2°48.528 240 14.6 239 10.1
2010-08-10 06:49:22 51°12.352 2°48.501 240 14.6 240 10.2
2010-08-10 06:49:27 51°12.341 2°48.473 240.3 14.6 239 10.3
2010-08-10 06:49:32 51°12.331 2°48.446 240.3 14.5 240 10.2
2010-08-10 06:49:37 51°12.321 2°48.418 240.4 14.6 240 10.2
2010-08-10 06:49:41 51°12.313 2°48.396 240.6 14.5 240 10.1
2010-08-10 06:49:47 51°12.301 2°48.362 240.7 14.6 240 10.3
2010-08-10 06:49:52 51°12.291 2°48.334 240.7 14.6 240 10.1
2010-08-10 06:49:57 51°12.28 2°48.306 240.7 14.6 240 10.2
2010-08-10 06:50:02 51°12.27 2°48.279 240.5 14.6 239 10.3
2010-08-10 06:50:07 51°12.26 2°48.251 240.4 14.5 240 10.1
2010-08-10 06:50:12 51°12.25 2°48.223 240.5 14.5 240 10.2
2010-08-10 06:50:17 51°12.24 2°48.196 240.5 14.6 240 10.3
2010-08-10 06:50:21 51°12.232 2°48.173 240.5 14.6 240 10.2
2010-08-10 06:50:27 51°12.219 2°48.14 240.8 14.5 240 10.2
2010-08-10 06:50:32 51°12.21 2°48.112 241 14.6 240 10.1
2010-08-10 06:50:37 51°12.199 2°48.084 240.8 14.6 240 10.2
2010-08-10 06:50:42 51°12.189 2°48.056 240.8 14.5 240 10.1
2010-08-10 06:50:47 51°12.179 2°48.029 240.5 14.6 240 10.3
2010-08-10 06:50:53 51°12.167 2°47.995 240.8 14.5 240 10.2
2010-08-10 06:50:57 51°12.159 2°47.973 240.6 14.5 240 10.3
2010-08-10 06:51:02 51°12.149 2°47.945 240.4 14.5 240 10.3
2010-08-10 06:51:07 51°12.139 2°47.918 240.6 14.5 240 10.1
2010-08-10 06:51:12 51°12.129 2°47.89 240.6 14.4 240 10.2
2010-08-10 06:51:17 51°12.119 2°47.863 240.5 14.4 240 10.2
2010-08-10 06:51:22 51°12.108 2°47.835 240.2 14.4 239 10.1
2010-08-10 06:51:27 51°12.098 2°47.808 240 14.4 239 10.3
2010-08-10 06:51:32 51°12.088 2°47.781 240 14.4 239 10.2
2010-08-10 06:51:37 51°12.078 2°47.753 239.9 14.3 239 10.1
2010-08-10 06:51:42 51°12.068 2°47.726 240 14.4 239 10.2
2010-08-10 06:51:47 51°12.057 2°47.699 240.1 14.4 240 10.1
2010-08-10 06:51:52 51°12.047 2°47.671 240.1 14.3 239 10
2010-08-10 06:51:57 51°12.037 2°47.644 239.8 14.3 240 10.1
2010-08-10 06:52:02 51°12.027 2°47.617 240.2 14.3 239 10.1
2010-08-10 06:52:07 51°12.017 2°47.59 240.2 14.3 240 10
2010-08-10 06:52:12 51°12.007 2°47.562 240.2 14.3 239 10.2
2010-08-10 06:52:17 51°11.997 2°47.535 240.3 14.3 240 9.9
2010-08-10 06:52:22 51°11.987 2°47.508 240.5 14.3 240 10.1
2010-08-10 06:52:27 51°11.977 2°47.48 240.5 14.3 240 10
2010-08-10 06:52:33 51°11.965 2°47.448 240.8 14.3 240 10
2010-08-10 06:52:37 51°11.957 2°47.426 240.7 14.3 240 10
2010-08-10 06:52:42 51°11.947 2°47.398 240.6 14.2 240 10.1
2010-08-10 06:52:47 51°11.937 2°47.371 240.7 14.3 240 10
2010-08-10 06:52:52 51°11.927 2°47.344 240.3 14.3 240 9.9
2010-08-10 06:52:57 51°11.917 2°47.317 240.3 14.3 240 10
2010-08-10 06:53:02 51°11.907 2°47.29 240 14.2 239 9.9
2010-08-10 06:53:07 51°11.897 2°47.263 239.7 14.2 239 10
2010-08-10 06:53:12 51°11.887 2°47.236 239.9 14.2 240 9.9
2010-08-10 06:53:17 51°11.877 2°47.209 240.2 14.2 240 9.8
2010-08-10 06:53:21 51°11.87 2°47.187 240.3 14.2 240 9.9
2010-08-10 06:53:27 51°11.858 2°47.154 240.5 14.2 240 9.7
2010-08-10 06:53:32 51°11.848 2°47.127 240.5 14.2 240 9.8
2010-08-10 06:53:37 51°11.838 2°47.1 240.4 14.2 240 9.7
2010-08-10 06:53:42 51°11.828 2°47.073 240.3 14.2 240 9.8
2010-08-10 06:53:47 51°11.818 2°47.046 240.2 14.2 240 9.7
2010-08-10 06:53:53 51°11.806 2°47.014 240.1 14.2 239 9.8
2010-08-10 06:53:57 51°11.798 2°46.992 239.7 14.2 239 9.8
2010-08-10 06:54:01 51°11.79 2°46.97 239.8 14.2 239 9.7
2010-08-10 06:54:07 51°11.778 2°46.938 240 14.2 240 9.7
2010-08-10 06:54:12 51°11.768 2°46.911 240.2 14.2 240 9.6
2010-08-10 06:54:17 51°11.759 2°46.884 240.3 14.2 240 9.7
2010-08-10 06:54:22 51°11.749 2°46.857 240.4 14.2 240 9.6
2010-08-10 06:54:27 51°11.739 2°46.829 240.5 14.2 240 9.6
2010-08-10 06:54:32 51°11.729 2°46.802 240.4 14.2 240 9.6
2010-08-10 06:54:37 51°11.719 2°46.775 240.3 14.2 240 9.6
2010-08-10 06:54:41 51°11.711 2°46.754 240.3 14.2 240 9.5
2010-08-10 06:54:47 51°11.699 2°46.721 240.3 14.2 239 9.5
2010-08-10 06:54:52 51°11.689 2°46.694 240.3 14.1 240 9.5
2010-08-10 06:54:57 51°11.68 2°46.667 240.5 14.1 240 9.6
2010-08-10 06:55:02 51°11.67 2°46.64 240.4 14.1 240 9.5
2010-08-10 06:55:07 51°11.66 2°46.613 240.3 14.1 240 9.6
2010-08-10 06:55:12 51°11.65 2°46.586 240.4 14.2 240 9.5
2010-08-10 06:55:17 51°11.64 2°46.559 240.5 14.2 240 9.6
2010-08-10 06:55:21 51°11.632 2°46.538 240.3 14.2 240 9.5
2010-08-10 06:55:27 51°11.621 2°46.505 240.3 14.2 240 9.4
2010-08-10 06:55:32 51°11.611 2°46.478 240.4 14.2 241 9.6
2010-08-10 06:55:37 51°11.601 2°46.451 241.1 14.1 240 9.4
2010-08-10 06:55:42 51°11.592 2°46.424 240.8 14.2 240 9.5
2010-08-10 06:55:47 51°11.582 2°46.397 240.8 14.1 240 9.5
2010-08-10 06:55:53 51°11.57 2°46.364 240.5 14.2 240 9.5
2010-08-10 06:55:57 51°11.562 2°46.342 240.5 14.2 240 9.4
2010-08-10 06:56:02 51°11.553 2°46.316 240.3 14.2 240 9.4
2010-08-10 06:56:07 51°11.543 2°46.288 240.3 14.2 240 9.4
2010-08-10 06:56:13 51°11.531 2°46.256 240.3 14.2 240 9.3
2010-08-10 06:56:17 51°11.523 2°46.234 240.4 14.2 241 9.3
2010-08-10 06:56:22 51°11.514 2°46.207 240.8 14.1 240 9.3
2010-08-10 06:56:27 51°11.504 2°46.18 240.8 14.1 240 9
2010-08-10 06:56:32 51°11.494 2°46.153 240.8 14.2 241 9.1
2010-08-10 06:56:37 51°11.484 2°46.126 241.1 14.1 240 9.1
2010-08-10 06:56:41 51°11.476 2°46.104 240.6 14.1 241 9.1
2010-08-10 06:56:47 51°11.465 2°46.072 240.5 14.1 239 9
2010-08-10 06:56:52 51°11.455 2°46.045 240.3 14.1 240 9
2010-08-10 06:56:57 51°11.445 2°46.018 240.1 14.1 239 9.1
2010-08-10 06:57:02 51°11.435 2°45.991 239.9 14.1 240 9
2010-08-10 06:57:07 51°11.425 2°45.965 239.8 14.1 239 9
2010-08-10 06:57:12 51°11.415 2°45.938 240 14.1 240 9
2010-08-10 06:57:17 51°11.405 2°45.911 239.9 14.1 239 8.9
2010-08-10 06:57:21 51°11.397 2°45.89 239.8 14.1 240 8.9
2010-08-10 06:57:27 51°11.385 2°45.857 239.9 14.2 240 8.8
2010-08-10 06:57:32 51°11.375 2°45.83 240.3 14.1 240 8.9
2010-08-10 06:57:37 51°11.366 2°45.803 240.5 14.1 240 8.8
2010-08-10 06:57:41 51°11.358 2°45.781 240.8 14.1 240 8.7
2010-08-10 06:57:47 51°11.346 2°45.749 240.9 14.1 240 8.8
2010-08-10 06:57:52 51°11.337 2°45.722 241.1 14.1 240 8.7
2010-08-10 06:57:57 51°11.327 2°45.695 241 14.2 240 8.6
2010-08-10 06:58:02 51°11.317 2°45.668 241 14.1 240 8.7
2010-08-10 06:58:07 51°11.307 2°45.64 241.1 14.1 241 8.7
2010-08-10 06:58:13 51°11.296 2°45.608 240.9 14.1 240 8.6
2010-08-10 06:58:17 51°11.288 2°45.586 241 14.1 240 8.7
2010-08-10 06:58:22 51°11.278 2°45.559 241 14.1 240 8.4
2010-08-10 06:58:27 51°11.268 2°45.532 240.6 14.1 240 8.6
2010-08-10 06:58:32 51°11.259 2°45.505 240.5 14.1 240 8.6
2010-08-10 06:58:37 51°11.249 2°45.478 240.4 14.1 240 8.5
2010-08-10 06:58:42 51°11.239 2°45.451 240.4 14.1 240 8.4
2010-08-10 06:58:47 51°11.229 2°45.424 240.8 14.1 240 8.5
2010-08-10 06:58:52 51°11.219 2°45.397 240.4 14.1 240 8.3
2010-08-10 06:58:57 51°11.21 2°45.37 240.4 14.1 240 8.3
2010-08-10 06:59:02 51°11.2 2°45.344 240.2 14.1 239 8.2
2010-08-10 06:59:07 51°11.19 2°45.317 240 14.1 239 8.3
2010-08-10 06:59:12 51°11.18 2°45.29 239.9 14.1 240 8.3
2010-08-10 06:59:17 51°11.17 2°45.263 240.3 14.1 240 8.2
2010-08-10 06:59:22 51°11.16 2°45.236 240.7 14.1 241 8.2
2010-08-10 06:59:27 51°11.151 2°45.209 241.1 14.1 241 8.2
2010-08-10 06:59:33 51°11.139 2°45.176 241.2 14.1 240 8.1
2010-08-10 06:59:37 51°11.131 2°45.155 241 14.1 240 8.1
2010-08-10 06:59:42 51°11.122 2°45.128 241 14.1 240 8.2
2010-08-10 06:59:47 51°11.112 2°45.101 240.9 14.1 240 8.1
2010-08-10 06:59:52 51°11.102 2°45.074 240.9 14.1 240 8
2010-08-10 06:59:57 51°11.093 2°45.047 241.1 14.1 240 8.1
2010-08-10 07:00:02 51°11.083 2°45.02 241 14.1 241 8
2010-08-10 07:00:07 51°11.073 2°44.993 241 14.1 240 7.9
2010-08-10 07:00:12 51°11.064 2°44.965 240.8 14.1 241 8
2010-08-10 07:00:17 51°11.054 2°44.939 241.1 14.1 240 7.9
2010-08-10 07:00:21 51°11.046 2°44.917 241 14.1 241 7.9
2010-08-10 07:00:27 51°11.034 2°44.885 241 14 240 7.9
2010-08-10 07:00:32 51°11.025 2°44.857 241 14 241 7.9
2010-08-10 07:00:37 51°11.015 2°44.831 241.1 14.1 240 7.9
2010-08-10 07:00:42 51°11.006 2°44.804 241.1 14.1 241 7.8
2010-08-10 07:00:47 51°10.996 2°44.777 241.2 14 241 7.8
2010-08-10 07:00:52 51°10.987 2°44.75 241.3 14 240 7.9
2010-08-10 07:00:57 51°10.977 2°44.723 241.3 14 240 7.7
2010-08-10 07:01:02 51°10.967 2°44.696 240.8 14 240 7.8
2010-08-10 07:01:07 51°10.958 2°44.669 240.8 14 240 7.7
2010-08-10 07:01:12 51°10.948 2°44.642 240.9 13.9 240 7.7
2010-08-10 07:01:17 51°10.939 2°44.615 241.1 14 240 7.7
2010-08-10 07:01:22 51°10.929 2°44.588 241 13.9 241 7.6
2010-08-10 07:01:27 51°10.92 2°44.561 241.2 13.9 240 7.6
2010-08-10 07:01:32 51°10.91 2°44.534 241.4 13.9 241 7.6
2010-08-10 07:01:37 51°10.901 2°44.508 241.6 13.9 240 7.4
2010-08-10 07:01:42 51°10.891 2°44.481 241.5 13.9 241 7.5
2010-08-10 07:01:47 51°10.882 2°44.454 241.3 13.9 241 7.3
2010-08-10 07:01:53 51°10.871 2°44.422 241.2 13.9 241 7.5
2010-08-10 07:01:57 51°10.863 2°44.401 241.2 13.9 241 7.6
2010-08-10 07:02:02 51°10.854 2°44.375 241.2 13.9 240 7.5
2010-08-10 07:02:07 51°10.844 2°44.348 241.3 13.8 240 7.5
2010-08-10 07:02:12 51°10.833 2°44.323 239.5 13.8 236 7.4
2010-08-10 07:02:17 51°10.823 2°44.297 237.3 13.8 236 7.4
2010-08-10 07:02:22 51°10.811 2°44.273 235.8 13.8 233 7.4
2010-08-10 07:02:27 51°10.8 2°44.249 233.8 13.8 233 7.3
2010-08-10 07:02:32 51°10.788 2°44.225 232.3 13.7 231 7.3
2010-08-10 07:02:37 51°10.775 2°44.202 231.2 13.7 230 7.2
2010-08-10 07:02:42 51°10.763 2°44.179 229.4 13.7 228 5.3
2010-08-10 07:02:47 51°10.75 2°44.157 227.9 13.6 228 7.2
2010-08-10 07:02:53 51°10.734 2°44.131 227.1 13.6 226 7.1
2010-08-10 07:02:57 51°10.724 2°44.114 225.4 13.5 226 7.1
2010-08-10 07:03:02 51°10.71 2°44.093 225.1 13.6 225 7
2010-08-10 07:03:07 51°10.697 2°44.071 224.4 13.6 225 7
2010-08-10 07:03:12 51°10.684 2°44.051 223.6 13.5 224 6.9
2010-08-10 07:03:17 51°10.67 2°44.03 223.4 13.5 225 7
2010-08-10 07:03:22 51°10.657 2°44.009 223.6 13.5 224 6.9
2010-08-10 07:03:27 51°10.644 2°43.988 223.6 13.5 225 6.8
2010-08-10 07:03:32 51°10.631 2°43.966 224.3 13.5 226 6.8
2010-08-10 07:03:37 51°10.618 2°43.945 225.2 13.4 226 6.9
2010-08-10 07:03:42 51°10.605 2°43.923 225.7 13.4 227 6.9
2010-08-10 07:03:47 51°10.593 2°43.901 226.2 13.4 227 6.8
2010-08-10 07:03:53 51°10.577 2°43.875 226.3 13.5 227 6.8
2010-08-10 07:03:57 51°10.568 2°43.857 226.8 13.4 229 6.9
2010-08-10 07:04:01 51°10.558 2°43.839 228.2 13.4 230 6.8
2010-08-10 07:04:07 51°10.544 2°43.812 229.4 13.4 231 6.9
2010-08-10 07:04:12 51°10.532 2°43.789 230.3 13.4 231 6.8
2010-08-10 07:04:17 51°10.52 2°43.766 231 13.4 232 7
2010-08-10 07:04:22 51°10.509 2°43.742 231.6 13.5 232 6.9
2010-08-10 07:04:27 51°10.497 2°43.719 231.8 13.5 233 6.8
2010-08-10 07:04:32 51°10.486 2°43.695 232.3 13.5 232 7
2010-08-10 07:04:37 51°10.474 2°43.672 232.3 13.5 232 6.9
2010-08-10 07:04:41 51°10.465 2°43.653 231.6 13.5 231 6.9
2010-08-10 07:04:47 51°10.451 2°43.626 231.3 13.5 231 6.9
2010-08-10 07:04:52 51°10.439 2°43.603 230.9 13.5 230 7
2010-08-10 07:04:57 51°10.426 2°43.58 230.2 13.6 230 7
2010-08-10 07:05:01 51°10.416 2°43.561 229.8 13.6 230 5.3
2010-08-10 07:05:07 51°10.402 2°43.533 229.9 13.6 230 7.1
2010-08-10 07:05:13 51°10.387 2°43.506 230 13.5 230 7
2010-08-10 07:05:17 51°10.377 2°43.488 230 13.6 230 7.1
2010-08-10 07:05:21 51°10.368 2°43.469 229.8 13.6 230 7.1
2010-08-10 07:05:27 51°10.354 2°43.441 229.9 13.6 231 7.1
2010-08-10 07:05:32 51°10.341 2°43.418 230.2 13.7 230 7.2
2010-08-10 07:05:37 51°10.329 2°43.395 230 13.7 231 7.1
2010-08-10 07:05:42 51°10.317 2°43.371 230.7 13.7 231 5.4
2010-08-10 07:05:47 51°10.305 2°43.348 230.7 13.7 231 -999
2010-08-10 07:05:52 51°10.294 2°43.325 230.9 13.5 232 7.2
2010-08-10 07:05:57 51°10.282 2°43.302 231 13.1 231 7.3
2010-08-10 07:06:02 51°10.271 2°43.28 231.2 12.9 231 5.4
2010-08-10 07:06:07 51°10.26 2°43.258 231.2 12.9 231 7.3
2010-08-10 07:06:12 51°10.249 2°43.236 231.2 12.5 231 7.3
2010-08-10 07:06:17 51°10.238 2°43.216 230.6 12.2 230 7.4
2010-08-10 07:06:22 51°10.228 2°43.196 229.4 11.7 229 7.5
2010-08-10 07:06:27 51°10.217 2°43.178 228 11 227 7.6
2010-08-10 07:06:32 51°10.207 2°43.162 226.4 10.4 226 7.7
2010-08-10 07:06:37 51°10.197 2°43.146 225.2 10 225 7.7
2010-08-10 07:06:42 51°10.188 2°43.131 223.8 9.5 225 7.7
2010-08-10 07:06:47 51°10.179 2°43.117 223 9 225 7.7
2010-08-10 07:06:52 51°10.17 2°43.103 222.9 8.7 224 7.8
2010-08-10 07:06:57 51°10.162 2°43.09 222.9 8.4 225 7.8
2010-08-10 07:07:02 51°10.154 2°43.078 222.9 8.1 226 7.8
2010-08-10 07:07:07 51°10.147 2°43.065 223.3 7.6 227 7.7
2010-08-10 07:07:13 51°10.14 2°43.05 225.8 7.2 233 7.7
2010-08-10 07:07:17 51°10.135 2°43.04 230.7 6.9 235 7.8
2010-08-10 07:07:21 51°10.132 2°43.03 236.4 6.5 243 7.7
2010-08-10 07:07:27 51°10.128 2°43.015 242.1 6.2 246 7.8
2010-08-10 07:07:32 51°10.125 2°43.002 247.6 6 252 7.8
2010-08-10 07:07:37 51°10.123 2°42.99 253.4 5.8 254 7.7
2010-08-10 07:07:41 51°10.122 2°42.981 258.8 5.3 260 7.8
2010-08-10 07:07:47 51°10.12 2°42.968 263.8 4.9 261 7.8
2010-08-10 07:07:52 51°10.12 2°42.957 267 4.6 263 7.8
2010-08-10 07:07:57 51°10.119 2°42.947 268.8 4.5 264 7.8
2010-08-10 07:08:02 51°10.118 2°42.938 270.4 4.4 266 7.8
2010-08-10 07:08:07 51°10.118 2°42.928 272.1 4.3 266 7.8
2010-08-10 07:08:13 51°10.118 2°42.917 273.7 4.1 268 7.8
2010-08-10 07:08:17 51°10.117 2°42.911 274.6 4 268 7.8
2010-08-10 07:08:22 51°10.117 2°42.902 275.1 3.7 268 7.9
2010-08-10 07:08:27 51°10.117 2°42.895 276 3.4 269 7.8
2010-08-10 07:08:32 51°10.117 2°42.888 278.1 3.1 270 7.7
2010-08-10 07:08:37 51°10.117 2°42.881 281 3 272 7.8
2010-08-10 07:08:42 51°10.118 2°42.875 284.2 2.7 274 7.7
2010-08-10 07:08:47 51°10.118 2°42.87 287.7 2.5 275 7.7
2010-08-10 07:08:52 51°10.119 2°42.864 291.3 2.3 276 7.7
2010-08-10 07:08:57 51°10.119 2°42.86 295 2.1 278 7.7
2010-08-10 07:09:01 51°10.119 2°42.857 298.1 1.9 277 7.7
2010-08-10 07:09:07 51°10.119 2°42.852 300.9 1.7 276 7.6
2010-08-10 07:09:12 51°10.12 2°42.849 303.5 1.5 273 7.7
2010-08-10 07:09:17 51°10.12 2°42.846 306.3 1.4 274 7.7
2010-08-10 07:09:22 51°10.12 2°42.843 308.7 1.2 270 7.8
2010-08-10 07:09:27 51°10.12 2°42.84 310.6 1.1 267 7.9
2010-08-10 07:09:32 51°10.12 2°42.838 312.9 0.9 261 7.8
2010-08-10 07:09:37 51°10.119 2°42.837 314.5 0.9 255 7.8
2010-08-10 07:09:41 51°10.119 2°42.835 315.9 0.8 250 7.8
2010-08-10 07:09:47 51°10.119 2°42.834 317.3 0.7 249 7.7
2010-08-10 07:09:52 51°10.118 2°42.832 318.6 0.7 250 7.7
2010-08-10 07:09:57 51°10.118 2°42.831 319.3 0.7 251 7.6
2010-08-10 07:10:02 51°10.118 2°42.829 320.1 0.7 248 7.6
2010-08-10 07:10:07 51°10.117 2°42.828 320.8 0.7 249 7.7
2010-08-10 07:10:12 51°10.117 2°42.826 321.5 0.7 249 7.8
2010-08-10 07:10:17 51°10.117 2°42.825 322 0.7 252 7.8
2010-08-10 07:10:21 51°10.117 2°42.824 322.8 0.7 255 7.8
2010-08-10 07:10:27 51°10.116 2°42.822 323.3 0.6 256 7.7
2010-08-10 07:10:32 51°10.116 2°42.821 323.9 0.6 257 7.7
2010-08-10 07:10:37 51°10.116 2°42.819 324.5 0.6 257 7.7
2010-08-10 07:10:42 51°10.116 2°42.818 324.9 0.6 258 7.7
2010-08-10 07:10:47 51°10.116 2°42.817 325.4 0.6 258 7.7
2010-08-10 07:10:53 51°10.115 2°42.815 325.9 0.6 260 7.8
2010-08-10 07:10:57 51°10.115 2°42.814 326.4 0.6 259 7.8
2010-08-10 07:11:02 51°10.115 2°42.812 326.9 0.6 260 7.8
2010-08-10 07:11:07 51°10.115 2°42.81 327.4 0.6 261 7.7
2010-08-10 07:11:12 51°10.115 2°42.809 327.7 0.6 265 7.8
2010-08-10 07:11:17 51°10.114 2°42.808 328.1 0.7 264 7.7
2010-08-10 07:11:22 51°10.114 2°42.806 328.3 0.6 265 7.7
2010-08-10 07:11:27 51°10.114 2°42.805 328.6 0.6 266 7.7
2010-08-10 07:11:32 51°10.114 2°42.803 328.9 0.6 269 7.8
2010-08-10 07:11:37 51°10.114 2°42.802 329.2 0.6 267 7.7
2010-08-10 07:11:42 51°10.114 2°42.801 329.4 0.6 266 7.8
2010-08-10 07:11:47 51°10.114 2°42.799 329.4 0.6 267 7.7
2010-08-10 07:11:53 51°10.114 2°42.798 329.5 0.6 267 7.7
2010-08-10 07:11:57 51°10.114 2°42.797 329.3 0.7 270 7.7
2010-08-10 07:12:01 51°10.114 2°42.796 329 0.6 266 7.7
2010-08-10 07:12:07 51°10.114 2°42.794 328.8 0.7 268 7.8
2010-08-10 07:12:12 51°10.114 2°42.793 328.4 0.7 268 7.7
2010-08-10 07:12:17 51°10.114 2°42.791 328.1 0.6 268 7.8
2010-08-10 07:12:23 51°10.114 2°42.789 327.7 0.7 271 -999
2010-08-10 07:12:28 51°10.114 2°42.788 327.4 0.7 271 7.8
2010-08-10 07:12:33 51°10.114 2°42.786 326.7 0.7 271 7.8
2010-08-10 07:12:37 51°10.114 2°42.785 326.2 0.7 270 7.7
2010-08-10 07:12:43 51°10.114 2°42.783 325.7 0.7 272 7.7
2010-08-10 07:12:48 51°10.114 2°42.782 325.2 0.7 270 7.6
2010-08-10 07:12:53 51°10.114 2°42.781 324.5 0.7 269 7.7
2010-08-10 07:12:57 51°10.114 2°42.779 323.8 0.7 270 7.7
2010-08-10 07:13:02 51°10.115 2°42.778 323.1 0.7 271 7.7
2010-08-10 07:13:07 51°10.115 2°42.776 322.6 0.7 269 7.7
2010-08-10 07:13:12 51°10.114 2°42.775 321.7 0.7 268 7.7
2010-08-10 07:13:17 51°10.114 2°42.773 321 0.7 268 7.8
2010-08-10 07:13:22 51°10.114 2°42.772 320.3 0.7 268 7.8
2010-08-10 07:13:27 51°10.114 2°42.77 319.6 0.7 268 7.7
2010-08-10 07:13:33 51°10.114 2°42.768 318.8 0.7 267 7.7
2010-08-10 07:13:37 51°10.114 2°42.767 318.2 0.7 267 7.8
2010-08-10 07:13:42 51°10.114 2°42.765 317.3 0.7 267 7.7
2010-08-10 07:13:47 51°10.114 2°42.764 316.7 0.7 269 7.8
2010-08-10 07:13:53 51°10.114 2°42.762 315.9 0.7 267 7.6
2010-08-10 07:13:57 51°10.114 2°42.761 315 0.7 269 7.7
2010-08-10 07:14:02 51°10.114 2°42.759 314.2 0.8 265 7.7
2010-08-10 07:14:07 51°10.114 2°42.757 313.5 0.7 268 7.7
2010-08-10 07:14:13 51°10.114 2°42.755 312.8 0.8 265 -999
2010-08-10 07:14:17 51°10.114 2°42.754 311.9 0.7 266 -999
2010-08-10 07:14:23 51°10.114 2°42.752 311.1 0.8 263 7.8
2010-08-10 07:14:28 51°10.114 2°42.75 310.2 0.7 265 7.7
2010-08-10 07:14:33 51°10.114 2°42.749 309.4 0.8 263 7.8
2010-08-10 07:14:37 51°10.114 2°42.747 308.6 0.7 263 7.8
2010-08-10 07:14:42 51°10.114 2°42.746 307.9 0.7 266 7.8
2010-08-10 07:14:47 51°10.113 2°42.744 307.2 0.7 266 7.7
2010-08-10 07:14:52 51°10.113 2°42.742 306.5 0.7 265 7.8
2010-08-10 07:14:57 51°10.113 2°42.741 305.7 0.8 265 7.7
2010-08-10 07:15:03 51°10.113 2°42.739 304.9 0.7 265 7.7
2010-08-10 07:15:08 51°10.113 2°42.737 304.2 0.7 264 4.5
2010-08-10 07:15:13 51°10.113 2°42.735 303.5 0.7 263 7.7
2010-08-10 07:15:17 51°10.113 2°42.734 302.8 0.7 263 -999
2010-08-10 07:15:23 51°10.113 2°42.732 302.2 0.7 263 7.8
2010-08-10 07:15:28 51°10.112 2°42.731 301.6 0.7 262 7.7
2010-08-10 07:15:33 51°10.112 2°42.729 301 0.7 265 7.7
2010-08-10 07:15:37 51°10.112 2°42.728 300.5 0.7 263 7.7
2010-08-10 07:15:42 51°10.112 2°42.726 299.8 0.7 262 7.7
2010-08-10 07:15:47 51°10.112 2°42.725 299.1 0.8 262 7.7
2010-08-10 07:15:52 51°10.112 2°42.723 298.3 0.7 265 7.7
2010-08-10 07:15:57 51°10.111 2°42.721 297.7 0.8 262 7.7
2010-08-10 07:16:02 51°10.111 2°42.72 297.1 0.8 262 7.7
2010-08-10 07:16:07 51°10.111 2°42.718 296.4 0.7 262 7.7
2010-08-10 07:16:12 51°10.111 2°42.717 295.8 0.7 262 7.7
2010-08-10 07:16:17 51°10.111 2°42.715 295.4 0.7 263 7.6
2010-08-10 07:16:22 51°10.111 2°42.713 294.8 0.7 262 7.8
2010-08-10 07:16:27 51°10.11 2°42.712 294.2 0.7 262 7.8
2010-08-10 07:16:32 51°10.11 2°42.71 293.8 0.7 261 7.8
2010-08-10 07:16:37 51°10.11 2°42.709 293.4 0.7 261 7.7
2010-08-10 07:16:42 51°10.11 2°42.707 292.7 0.7 260 7.7
2010-08-10 07:16:47 51°10.11 2°42.706 292.3 0.7 260 7.7
2010-08-10 07:16:52 51°10.11 2°42.704 291.9 0.7 260 7.6
2010-08-10 07:16:57 51°10.109 2°42.702 291.5 0.7 259 7.7
2010-08-10 07:17:01 51°10.109 2°42.701 291 0.7 260 7.8
2010-08-10 07:17:07 51°10.109 2°42.699 290.6 0.7 261 7.8
2010-08-10 07:17:12 51°10.109 2°42.698 290.2 0.7 262 7.7
2010-08-10 07:17:17 51°10.109 2°42.696 289.7 0.7 264 7.7
2010-08-10 07:17:22 51°10.109 2°42.695 289 0.7 261 7.7
2010-08-10 07:17:27 51°10.108 2°42.693 288.6 0.7 261 7.7
2010-08-10 07:17:32 51°10.108 2°42.692 288.1 0.7 263 7.8
2010-08-10 07:17:37 51°10.108 2°42.69 287.8 0.7 262 7.8
2010-08-10 07:17:41 51°10.108 2°42.689 287.5 0.7 263 7.7
2010-08-10 07:17:47 51°10.108 2°42.687 287.2 0.7 262 7.8
2010-08-10 07:17:52 51°10.108 2°42.686 287 0.7 262 7.7
2010-08-10 07:17:57 51°10.107 2°42.684 286.8 0.7 261 7.7
2010-08-10 07:18:02 51°10.107 2°42.683 286.5 0.7 263 7.8
2010-08-10 07:18:07 51°10.107 2°42.681 286.2 0.7 263 7.7
2010-08-10 07:18:12 51°10.107 2°42.68 286 0.7 265 7.7
2010-08-10 07:18:17 51°10.107 2°42.678 285.7 0.7 263 7.7
2010-08-10 07:18:21 51°10.107 2°42.677 285.5 0.7 263 7.7
2010-08-10 07:18:27 51°10.107 2°42.675 285.5 0.7 262 7.7
2010-08-10 07:18:32 51°10.107 2°42.674 285.5 0.6 267 7.7
2010-08-10 07:18:37 51°10.107 2°42.673 285.5 0.7 264 7.7
2010-08-10 07:18:41 51°10.107 2°42.672 285.5 0.6 266 7.7
2010-08-10 07:18:47 51°10.107 2°42.67 285.6 0.6 265 7.7
2010-08-10 07:18:52 51°10.107 2°42.669 285.7 0.7 266 7.7
2010-08-10 07:18:57 51°10.107 2°42.667 285.8 0.6 264 7.7
2010-08-10 07:19:02 51°10.106 2°42.666 285.9 0.7 268 7.7
2010-08-10 07:19:07 51°10.107 2°42.664 285.9 0.9 273 7.7
2010-08-10 07:19:13 51°10.107 2°42.661 285.8 1.1 275 7.8
2010-08-10 07:19:17 51°10.107 2°42.659 285.9 1.3 279 7.7
2010-08-10 07:19:22 51°10.107 2°42.655 286.8 1.7 277 7.8
2010-08-10 07:19:27 51°10.108 2°42.651 288.7 1.9 282 7.7
2010-08-10 07:19:33 51°10.109 2°42.646 291.6 2.2 284 7.7
2010-08-10 07:19:37 51°10.109 2°42.642 295 2.4 287 7.8
2010-08-10 07:19:42 51°10.11 2°42.636 298.9 2.7 290 7.6
2010-08-10 07:19:47 51°10.112 2°42.63 303.1 2.9 294 7.7
2010-08-10 07:19:53 51°10.115 2°42.623 307.8 3.1 299 7.8
2010-08-10 07:19:57 51°10.117 2°42.618 312.9 3.4 302 7.7
2010-08-10 07:20:01 51°10.119 2°42.613 318 3.7 310 7.7
2010-08-10 07:20:07 51°10.123 2°42.605 322 4.1 312 7.7
2010-08-10 07:20:12 51°10.128 2°42.598 325.2 4.4 316 7.7
2010-08-10 07:20:17 51°10.132 2°42.591 328.2 4.6 317 7.6
2010-08-10 07:20:22 51°10.138 2°42.585 330.3 4.9 320 7.6
2010-08-10 07:20:27 51°10.143 2°42.577 331.4 5.3 321 7.6
2010-08-10 07:20:33 51°10.151 2°42.568 331.8 5.7 323 7.5
2010-08-10 07:20:37 51°10.156 2°42.562 332.3 5.9 323 7.5
2010-08-10 07:20:42 51°10.164 2°42.554 332.9 6.3 325 7.5
2010-08-10 07:20:47 51°10.171 2°42.546 333.4 6.5 325 7.5
2010-08-10 07:20:52 51°10.179 2°42.537 334.4 6.8 327 7.5
2010-08-10 07:20:57 51°10.187 2°42.529 335.2 7 327 5.6
2010-08-10 07:21:02 51°10.196 2°42.521 336.1 7.3 329 5.5
2010-08-10 07:21:07 51°10.205 2°42.513 337 7.6 330 5.6
2010-08-10 07:21:12 51°10.215 2°42.504 337.9 7.8 331 7.4
2010-08-10 07:21:17 51°10.224 2°42.496 338.8 8 332 7.4
2010-08-10 07:21:22 51°10.235 2°42.488 339.8 8.2 333 7.5
2010-08-10 07:21:27 51°10.245 2°42.48 340.8 8.3 335 7.4
2010-08-10 07:21:32 51°10.256 2°42.472 342.3 8.4 336 7.4
2010-08-10 07:21:37 51°10.267 2°42.465 343.6 8.5 338 7.5
2010-08-10 07:21:42 51°10.278 2°42.458 345.1 8.6 339 7.5
2010-08-10 07:21:47 51°10.289 2°42.452 346.4 8.6 340 7.6
2010-08-10 07:21:53 51°10.303 2°42.444 347.7 8.7 341 7.5
2010-08-10 07:21:57 51°10.312 2°42.44 349.2 8.7 343 7.7
2010-08-10 07:22:02 51°10.324 2°42.435 350.6 8.7 345 7.6
2010-08-10 07:22:07 51°10.336 2°42.43 352.3 8.8 346 7.7
2010-08-10 07:22:12 51°10.348 2°42.426 353.7 8.8 348 7.7
2010-08-10 07:22:17 51°10.36 2°42.422 355.4 8.8 348 7.8
2010-08-10 07:22:22 51°10.372 2°42.419 356.8 8.8 350 7.8
2010-08-10 07:22:27 51°10.384 2°42.415 357.2 8.9 350 7.9
2010-08-10 07:22:32 51°10.396 2°42.411 357.1 8.9 349 8
2010-08-10 07:22:37 51°10.408 2°42.407 356.3 8.9 348 8
2010-08-10 07:22:42 51°10.42 2°42.403 355 8.9 347 8.3
2010-08-10 07:22:47 51°10.432 2°42.397 353.6 9 344 8.2
2010-08-10 07:22:53 51°10.446 2°42.39 351.9 9 343 8.3
2010-08-10 07:22:57 51°10.456 2°42.385 350 9.1 341 8.3
2010-08-10 07:23:02 51°10.468 2°42.378 348.1 9.1 340 8.6
2010-08-10 07:23:07 51°10.48 2°42.371 347 9.1 340 8.6
2010-08-10 07:23:12 51°10.492 2°42.364 347.2 9.1 341 8.7
2010-08-10 07:23:17 51°10.504 2°42.358 348.2 9.1 342 8.9
2010-08-10 07:23:22 51°10.516 2°42.352 349.9 9.1 343 8.9
2010-08-10 07:23:27 51°10.528 2°42.347 351.9 9 346 9.1
2010-08-10 07:23:32 51°10.54 2°42.343 353.1 9.1 346 9.3
2010-08-10 07:23:37 51°10.553 2°42.338 353.8 9.1 347 9.3
2010-08-10 07:23:42 51°10.565 2°42.333 354.3 9.1 346 9.4
2010-08-10 07:23:47 51°10.577 2°42.329 354.5 9.1 347 9.5
2010-08-10 07:23:53 51°10.592 2°42.323 354.4 9.1 346 9.6
2010-08-10 07:23:57 51°10.602 2°42.319 354.4 9.1 346 9.8
2010-08-10 07:24:01 51°10.611 2°42.315 354.2 9.1 345 9.9
2010-08-10 07:24:07 51°10.626 2°42.309 353.8 9.1 346 9.9
2010-08-10 07:24:12 51°10.638 2°42.304 353.6 9.1 345 10.1
2010-08-10 07:24:17 51°10.65 2°42.298 353.3 9.1 344 10.1
2010-08-10 07:24:22 51°10.663 2°42.293 352.8 9.1 344 10.4
2010-08-10 07:24:27 51°10.675 2°42.287 352 9.2 343 10.3
2010-08-10 07:24:32 51°10.687 2°42.281 351.5 9.2 343 10.5
2010-08-10 07:24:37 51°10.699 2°42.274 351 9.2 342 10.7
2010-08-10 07:24:41 51°10.709 2°42.27 351 9.2 344 10.5
2010-08-10 07:24:47 51°10.724 2°42.263 352.2 9.1 345 10.7
2010-08-10 07:24:52 51°10.736 2°42.259 353.6 9.1 347 10.8
2010-08-10 07:24:57 51°10.748 2°42.254 355.2 9.1 348 10.9
2010-08-10 07:25:02 51°10.761 2°42.251 356.8 9 350 10.9
2010-08-10 07:25:07 51°10.773 2°42.248 358.6 9 351 10.9
2010-08-10 07:25:12 51°10.785 2°42.245 -999 8.9 352 11
2010-08-10 07:25:17 51°10.798 2°42.243 0.8 8.9 353 11.2
2010-08-10 07:25:21 51°10.807 2°42.24 1.4 8.9 353 11.1
2010-08-10 07:25:27 51°10.822 2°42.238 1.6 8.9 353 11.1
2010-08-10 07:25:32 51°10.834 2°42.235 1.8 8.9 353 11.2
2010-08-10 07:25:37 51°10.847 2°42.233 1.8 8.9 353 11.2
2010-08-10 07:25:42 51°10.859 2°42.231 1.5 9 352 11.4
2010-08-10 07:25:47 51°10.871 2°42.228 1 8.9 352 11.4
2010-08-10 07:25:53 51°10.886 2°42.224 0.5 8.9 351 11.2
2010-08-10 07:25:57 51°10.896 2°42.222 0.1 8.9 351 11.6
2010-08-10 07:26:02 51°10.908 2°42.218 359.7 9 350 11.4
2010-08-10 07:26:07 51°10.92 2°42.215 359.1 9 349 11.4
2010-08-10 07:26:12 51°10.933 2°42.211 358.3 9 349 11.4
2010-08-10 07:26:17 51°10.945 2°42.207 357.6 9 349 11.5
2010-08-10 07:26:22 51°10.957 2°42.203 357.2 9 348 11.6
2010-08-10 07:26:27 51°10.97 2°42.199 356.9 9.1 348 11.4
2010-08-10 07:26:32 51°10.982 2°42.194 356.5 9.1 347 11.4
2010-08-10 07:26:37 51°10.994 2°42.19 356 9.1 348 11.5
2010-08-10 07:26:41 51°11.004 2°42.186 355.5 9.1 347 11.4
2010-08-10 07:26:47 51°11.019 2°42.181 355 9.1 346 11.3
2010-08-10 07:26:52 51°11.031 2°42.176 354.4 9.2 347 11.5
2010-08-10 07:26:57 51°11.044 2°42.171 354.3 9.1 346 11.3
2010-08-10 07:27:02 51°11.056 2°42.167 353.8 9.1 346 11.3
2010-08-10 07:27:07 51°11.069 2°42.162 353.6 9.2 346 11.3
2010-08-10 07:27:12 51°11.081 2°42.157 353.4 9.2 346 11.3
2010-08-10 07:27:17 51°11.093 2°42.152 353.4 9.2 346 11.1
2010-08-10 07:27:21 51°11.103 2°42.148 353.1 9.2 346 11.2
2010-08-10 07:27:27 51°11.118 2°42.142 352.9 9.2 345 11
2010-08-10 07:27:32 51°11.13 2°42.137 352.4 9.2 345 11
2010-08-10 07:27:37 51°11.142 2°42.131 351.9 9.2 345 11
2010-08-10 07:27:42 51°11.155 2°42.126 351.4 9.2 344 11
2010-08-10 07:27:47 51°11.166 2°42.119 351.1 9.1 341 10.9
2010-08-10 07:27:52 51°11.178 2°42.112 349.2 8.5 337 10.8
2010-08-10 07:27:57 51°11.187 2°42.102 341.8 8.1 325 10.8
2010-08-10 07:28:02 51°11.195 2°42.091 332.7 7.5 320 10.9
2010-08-10 07:28:07 51°11.201 2°42.08 326.7 7 312 10.7
2010-08-10 07:28:12 51°11.207 2°42.068 318.6 6.6 306 10.8
2010-08-10 07:28:17 51°11.211 2°42.056 312.2 6.3 300 10.8
2010-08-10 07:28:22 51°11.214 2°42.043 305.8 6 294 11
2010-08-10 07:28:27 51°11.217 2°42.031 299.8 5.8 288 10.8
2010-08-10 07:28:33 51°11.219 2°42.017 293.6 5.6 283 10.9
2010-08-10 07:28:37 51°11.22 2°42.007 287.6 5.5 278 11
2010-08-10 07:28:42 51°11.22 2°41.995 281.8 5.3 272 11
2010-08-10 07:28:47 51°11.22 2°41.984 276 5.1 268 11
2010-08-10 07:28:52 51°11.219 2°41.973 270.4 5 263 11
2010-08-10 07:28:57 51°11.218 2°41.962 264.9 4.9 260 11
2010-08-10 07:29:02 51°11.216 2°41.952 259.3 4.8 256 11
2010-08-10 07:29:07 51°11.214 2°41.942 255.1 4.7 249 11
2010-08-10 07:29:13 51°11.211 2°41.931 249.9 4.6 246 10.9
2010-08-10 07:29:17 51°11.209 2°41.924 243.3 4.5 243 11
2010-08-10 07:29:22 51°11.206 2°41.916 238.2 4.3 238 11
2010-08-10 07:29:27 51°11.202 2°41.908 234.3 4.2 236 11
2010-08-10 07:29:33 51°11.198 2°41.9 229.4 4.1 232 11
2010-08-10 07:29:37 51°11.195 2°41.895 225.2 3.9 229 11.1
2010-08-10 07:29:42 51°11.192 2°41.889 221.2 3.8 227 10.9
2010-08-10 07:29:47 51°11.188 2°41.883 218 3.7 224 10.9
2010-08-10 07:29:52 51°11.184 2°41.878 214 3.6 221 10.9
2010-08-10 07:29:57 51°11.18 2°41.873 209.2 3.6 217 11
2010-08-10 07:30:02 51°11.176 2°41.868 205.6 3.7 213 11
2010-08-10 07:30:07 51°11.171 2°41.865 201.4 3.7 206 10.9
2010-08-10 07:30:12 51°11.167 2°41.861 195.2 3.8 201 10.9
2010-08-10 07:30:17 51°11.162 2°41.859 187.4 3.8 196 10.9
2010-08-10 07:30:21 51°11.157 2°41.858 180.5 3.7 189 10.9
2010-08-10 07:30:27 51°11.151 2°41.857 175 3.6 184 11
2010-08-10 07:30:32 51°11.147 2°41.857 167.1 3.5 180 11
2010-08-10 07:30:37 51°11.141 2°41.857 163.6 3.6 178 11
2010-08-10 07:30:42 51°11.136 2°41.858 161 3.7 176 11
2010-08-10 07:30:47 51°11.131 2°41.858 160.1 3.7 175 11
2010-08-10 07:30:53 51°11.125 2°41.859 159.5 3.8 175 11
2010-08-10 07:30:57 51°11.121 2°41.86 159.6 3.9 175 11
2010-08-10 07:31:35 51°11.076 2°41.862 169 4.4 183 11.2
2010-08-10 07:31:52 51°11.055 2°41.859 173.1 4.6 185 11.2
2010-08-10 07:31:53 51°11.054 2°41.859 173.4 4.6 185 11.2
2010-08-10 07:32:01 51°11.043 2°41.857 175 4.6 187 11.2
2010-08-10 07:33:17 51°10.944 2°41.817 191.4 5.1 204 11.6
2010-08-10 07:33:21 51°10.939 2°41.813 194.6 5.1 206 11.6
2010-08-10 07:33:27 51°10.931 2°41.807 196.4 5.1 208 11.7
2010-08-10 07:33:32 51°10.925 2°41.802 198 5.1 208 11.7
2010-08-10 07:33:37 51°10.919 2°41.796 198.6 5.1 209 11.6
2010-08-10 07:33:42 51°10.913 2°41.791 198.5 5.1 208 11.5
2010-08-10 07:33:47 51°10.906 2°41.786 198.2 5 208 11.6
2010-08-10 07:33:53 51°10.899 2°41.78 197.5 4.8 208 11.5
2010-08-10 07:33:57 51°10.895 2°41.776 196.7 4.7 207 11.7
2010-08-10 07:34:02 51°10.889 2°41.771 195.8 4.6 207 11.5
2010-08-10 07:34:07 51°10.884 2°41.767 194.9 4.5 208 11.5
2010-08-10 07:34:12 51°10.878 2°41.763 194.2 4.4 208 11.6
2010-08-10 07:34:17 51°10.873 2°41.758 193.6 4.2 208 11.5
2010-08-10 07:34:22 51°10.868 2°41.754 193.2 4.1 207 11.6
2010-08-10 07:34:27 51°10.863 2°41.75 192.7 4 206 11.7
2010-08-10 07:34:33 51°10.857 2°41.746 192.1 3.9 206 11.6
2010-08-10 07:34:37 51°10.853 2°41.742 191.5 3.9 207 11.6
2010-08-10 07:34:42 51°10.848 2°41.739 191 3.8 206 11.7
2010-08-10 07:34:47 51°10.844 2°41.735 191 3.8 208 11.7
2010-08-10 07:34:52 51°10.839 2°41.731 191.4 3.7 208 11.6
2010-08-10 07:34:57 51°10.834 2°41.727 192.4 3.7 209 11.7
2010-08-10 07:35:02 51°10.83 2°41.723 193.4 3.7 209 11.8
2010-08-10 07:35:07 51°10.825 2°41.719 194.7 3.7 210 11.7
2010-08-10 07:35:12 51°10.821 2°41.715 196.1 3.7 211 11.6
2010-08-10 07:35:17 51°10.817 2°41.711 197.3 3.6 212 11.7
2010-08-10 07:35:22 51°10.813 2°41.706 198.9 3.6 214 11.6
2010-08-10 07:35:27 51°10.809 2°41.702 200.4 3.6 215 11.7
2010-08-10 07:35:32 51°10.805 2°41.697 201.6 3.6 216 11.7
2010-08-10 07:35:37 51°10.801 2°41.692 203.1 3.6 217 11.7
2010-08-10 07:35:41 51°10.797 2°41.688 204.7 3.6 219 11.7
2010-08-10 07:35:47 51°10.793 2°41.682 206.3 3.5 221 11.7
2010-08-10 07:35:52 51°10.789 2°41.677 208.1 3.5 222 11.6
2010-08-10 07:35:57 51°10.786 2°41.672 209.8 3.5 223 11.7
2010-08-10 07:36:02 51°10.782 2°41.666 211.7 3.6 223 11.6
2010-08-10 07:36:07 51°10.779 2°41.661 213.5 3.5 225 11.5
2010-08-10 07:36:12 51°10.776 2°41.655 214.9 3.5 227 11.7
2010-08-10 07:36:17 51°10.772 2°41.649 216.7 3.5 228 11.6
2010-08-10 07:36:21 51°10.77 2°41.645 218.4 3.5 229 11.6
2010-08-10 07:36:27 51°10.766 2°41.637 219.9 3.5 231 11.6
2010-08-10 07:36:32 51°10.763 2°41.631 221.5 3.5 232 11.7
2010-08-10 07:36:37 51°10.76 2°41.625 223.3 3.5 233 11.7
2010-08-10 07:36:42 51°10.757 2°41.619 225.1 3.5 235 11.6
2010-08-10 07:36:47 51°10.754 2°41.613 226.9 3.5 235 11.7
2010-08-10 07:36:53 51°10.751 2°41.605 228.7 3.5 238 11.6
2010-08-10 07:36:57 51°10.749 2°41.599 230.3 3.5 238 11.6
2010-08-10 07:37:02 51°10.747 2°41.593 232.2 3.6 240 11.5
2010-08-10 07:37:07 51°10.744 2°41.586 233.9 3.5 241 11.6
2010-08-10 07:37:12 51°10.742 2°41.579 235.3 3.6 242 11.7
2010-08-10 07:37:17 51°10.74 2°41.572 236.3 3.6 242 11.6
2010-08-10 07:37:22 51°10.737 2°41.565 237 3.5 243 11.6
2010-08-10 07:37:27 51°10.735 2°41.558 237.4 3.5 244 11.6
2010-08-10 07:37:32 51°10.733 2°41.551 237.7 3.5 244 11.6
2010-08-10 07:37:37 51°10.731 2°41.544 237.7 3.5 244 11.6
2010-08-10 07:37:42 51°10.729 2°41.537 237.5 3.5 244 11.6
2010-08-10 07:37:47 51°10.727 2°41.53 237.1 3.5 243 11.7
2010-08-10 07:37:52 51°10.725 2°41.523 236.8 3.5 243 11.5
2010-08-10 07:37:57 51°10.722 2°41.516 236.5 3.5 244 11.6
2010-08-10 07:38:01 51°10.721 2°41.511 236 3.5 244 11.6
2010-08-10 07:38:07 51°10.718 2°41.502 235.7 3.5 244 11.6
2010-08-10 07:38:12 51°10.716 2°41.496 235.5 3.5 243 11.6
2010-08-10 07:38:17 51°10.714 2°41.489 235.2 3.4 243 11.5
2010-08-10 07:38:22 51°10.712 2°41.482 234.8 3.4 243 11.6
2010-08-10 07:38:27 51°10.71 2°41.475 234.5 3.4 243 11.5
2010-08-10 07:38:32 51°10.707 2°41.469 234.3 3.4 242 11.6
2010-08-10 07:38:37 51°10.705 2°41.462 233.7 3.4 242 11.6
2010-08-10 07:38:41 51°10.703 2°41.457 233.1 3.5 242 11.6
2010-08-10 07:38:47 51°10.7 2°41.448 232.9 3.5 241 11.6
2010-08-10 07:38:52 51°10.698 2°41.442 232.3 3.5 241 11.6
2010-08-10 07:38:57 51°10.696 2°41.435 231.9 3.5 240 11.5
2010-08-10 07:39:02 51°10.693 2°41.428 231.6 3.5 241 11.7
2010-08-10 07:39:07 51°10.691 2°41.421 231.3 3.6 241 11.7
2010-08-10 07:39:12 51°10.688 2°41.414 231.3 3.5 240 11.5
2010-08-10 07:39:17 51°10.686 2°41.408 230.9 3.6 240 11.6
2010-08-10 07:39:21 51°10.684 2°41.402 230.6 3.6 239 11.6
2010-08-10 07:39:27 51°10.681 2°41.394 230.3 3.5 239 11.5
2010-08-10 07:39:32 51°10.678 2°41.388 230.2 3.6 238 11.6
2010-08-10 07:39:37 51°10.676 2°41.381 230.1 3.6 239 11.5
2010-08-10 07:39:42 51°10.673 2°41.374 230 3.6 239 11.6
2010-08-10 07:39:47 51°10.671 2°41.368 230 3.6 239 11.7
2010-08-10 07:39:52 51°10.668 2°41.361 230.3 3.6 240 11.6
2010-08-10 07:39:57 51°10.665 2°41.354 230.6 3.6 237 11.5
2010-08-10 07:40:02 51°10.663 2°41.347 230.9 3.6 240 11.5
2010-08-10 07:40:07 51°10.66 2°41.34 231 3.6 240 11.6
2010-08-10 07:40:12 51°10.658 2°41.333 231.2 3.6 240 11.5
2010-08-10 07:40:17 51°10.655 2°41.326 231.2 3.6 240 11.4
2010-08-10 07:40:22 51°10.653 2°41.319 231.2 3.7 240 11.6
2010-08-10 07:40:27 51°10.65 2°41.312 231.1 3.7 240 11.6
2010-08-10 07:40:32 51°10.647 2°41.305 231.2 3.7 240 11.7
2010-08-10 07:40:37 51°10.645 2°41.298 231.3 3.6 239 11.4
2010-08-10 07:40:42 51°10.642 2°41.292 231 3.6 240 11.5
2010-08-10 07:40:47 51°10.64 2°41.285 230.9 3.7 239 11.7
2010-08-10 07:40:52 51°10.637 2°41.278 230.9 3.7 239 11.6
2010-08-10 07:40:57 51°10.635 2°41.271 230.7 3.7 239 11.4
2010-08-10 07:41:01 51°10.632 2°41.265 230.6 3.6 239 11.4
2010-08-10 07:41:07 51°10.629 2°41.257 230.5 3.7 239 11.6
2010-08-10 07:41:12 51°10.627 2°41.25 230.3 3.7 239 11.6
2010-08-10 07:41:17 51°10.624 2°41.243 230.3 3.7 239 11.5
2010-08-10 07:41:22 51°10.622 2°41.236 230.2 3.7 238 11.4
2010-08-10 07:41:27 51°10.619 2°41.229 230.1 3.6 238 11.4
2010-08-10 07:41:32 51°10.616 2°41.223 229.8 3.7 239 11.5
2010-08-10 07:41:37 51°10.614 2°41.216 229.9 3.7 239 11.5
2010-08-10 07:41:42 51°10.611 2°41.209 229.9 3.6 239 11.6
2010-08-10 07:41:47 51°10.608 2°41.202 230.1 3.7 240 11.6
2010-08-10 07:41:52 51°10.606 2°41.195 230.2 3.6 239 11.3
2010-08-10 07:41:57 51°10.603 2°41.188 230.2 3.6 239 11.6
2010-08-10 07:42:02 51°10.601 2°41.181 230.2 3.6 238 11.4
2010-08-10 07:42:07 51°10.598 2°41.175 230.2 3.6 239 11.6
2010-08-10 07:42:12 51°10.595 2°41.168 230.3 3.6 239 11.6
2010-08-10 07:42:17 51°10.593 2°41.161 230.6 3.6 239 11.4
2010-08-10 07:42:22 51°10.59 2°41.154 230.8 3.6 239 11.6
2010-08-10 07:42:27 51°10.588 2°41.147 230.9 3.6 240 11.5
2010-08-10 07:42:32 51°10.585 2°41.14 231 3.6 240 11.5
2010-08-10 07:42:37 51°10.583 2°41.133 231.2 3.6 240 11.6
2010-08-10 07:42:41 51°10.581 2°41.128 231.2 3.6 239 11.5
2010-08-10 07:42:47 51°10.577 2°41.12 231.2 3.6 239 11.5
2010-08-10 07:42:52 51°10.575 2°41.113 231 3.6 239 11.5
2010-08-10 07:42:57 51°10.572 2°41.106 230.7 3.6 238 11.4
2010-08-10 07:43:02 51°10.57 2°41.099 230.2 3.6 239 11.6
2010-08-10 07:43:07 51°10.567 2°41.092 229.9 3.6 239 11.5
2010-08-10 07:43:12 51°10.564 2°41.085 229.7 3.6 238 11.5
2010-08-10 07:43:17 51°10.562 2°41.079 229.6 3.6 238 11.3
2010-08-10 07:43:21 51°10.56 2°41.073 229.5 3.6 238 11.5
2010-08-10 07:43:27 51°10.556 2°41.065 229.6 3.6 239 11.6
2010-08-10 07:43:32 51°10.554 2°41.058 229.7 3.6 238 11.4
2010-08-10 07:43:37 51°10.551 2°41.052 229.9 3.6 238 11.5
2010-08-10 07:43:42 51°10.548 2°41.045 230 3.6 239 11.5
2010-08-10 07:43:47 51°10.546 2°41.038 230.1 3.7 238 11.6
2010-08-10 07:43:53 51°10.543 2°41.03 230.1 3.7 238 11.6
2010-08-10 07:43:57 51°10.541 2°41.024 230.1 3.7 239 11.6
2010-08-10 07:44:02 51°10.538 2°41.017 229.9 3.7 238 11.6
2010-08-10 07:44:07 51°10.535 2°41.01 229.8 3.7 239 11.5
2010-08-10 07:44:12 51°10.532 2°41.004 229.7 3.7 238 11.4
2010-08-10 07:44:17 51°10.53 2°40.997 229.5 3.6 238 11.5
2010-08-10 07:44:22 51°10.527 2°40.99 229.4 3.6 239 11.5
2010-08-10 07:44:27 51°10.524 2°40.983 229.3 3.7 239 11.5
2010-08-10 07:44:32 51°10.522 2°40.976 229.4 3.6 239 11.4
2010-08-10 07:44:37 51°10.519 2°40.97 229.6 3.6 239 11.4
2010-08-10 07:44:41 51°10.517 2°40.964 229.7 3.7 239 11.6
2010-08-10 07:44:47 51°10.514 2°40.956 229.8 3.6 239 11.4
2010-08-10 07:44:52 51°10.511 2°40.949 229.9 3.6 239 11.4
2010-08-10 07:44:57 51°10.509 2°40.942 229.9 3.6 239 11.4
2010-08-10 07:45:02 51°10.506 2°40.935 230 3.6 239 11.5
2010-08-10 07:45:07 51°10.504 2°40.928 230 3.6 239 11.4
2010-08-10 07:45:12 51°10.501 2°40.922 230 3.6 239 11.4
2010-08-10 07:45:17 51°10.498 2°40.915 229.8 3.6 239 11.5
2010-08-10 07:45:22 51°10.496 2°40.908 229.6 3.6 239 11.6
2010-08-10 07:45:27 51°10.493 2°40.901 229.5 3.6 239 11.5
2010-08-10 07:45:32 51°10.49 2°40.895 229.4 3.6 238 11.3
2010-08-10 07:45:37 51°10.488 2°40.888 229.4 3.6 238 11.4
2010-08-10 07:45:41 51°10.486 2°40.883 229.4 3.6 238 11.4
2010-08-10 07:45:47 51°10.482 2°40.875 229.4 3.5 238 11.5
2010-08-10 07:45:52 51°10.48 2°40.868 229.4 3.5 239 11.6
2010-08-10 07:45:57 51°10.477 2°40.861 229.6 3.5 237 11.5
2010-08-10 07:46:02 51°10.475 2°40.855 229.4 3.5 238 11.5
2010-08-10 07:46:07 51°10.472 2°40.848 229.4 3.5 237 11.6
2010-08-10 07:46:12 51°10.47 2°40.842 229.2 3.5 238 11.4
2010-08-10 07:46:17 51°10.467 2°40.835 229.1 3.5 238 11.5
2010-08-10 07:46:22 51°10.464 2°40.828 229.2 3.5 239 11.4
2010-08-10 07:46:27 51°10.462 2°40.822 229.3 3.5 237 11.5
2010-08-10 07:46:32 51°10.459 2°40.815 229.3 3.5 238 11.5
2010-08-10 07:46:37 51°10.457 2°40.809 229.3 3.5 237 11.4
2010-08-10 07:46:42 51°10.454 2°40.802 229.4 3.5 238 11.5
2010-08-10 07:46:47 51°10.451 2°40.796 229.3 3.5 237 11.6
2010-08-10 07:46:52 51°10.449 2°40.789 229.4 3.6 238 11.4
2010-08-10 07:46:57 51°10.446 2°40.782 229.4 3.5 238 11.3
2010-08-10 07:47:02 51°10.444 2°40.776 229.5 3.5 239 11.3
2010-08-10 07:47:07 51°10.441 2°40.769 229.5 3.5 239 11.4
2010-08-10 07:47:12 51°10.438 2°40.763 229.5 3.5 239 11.6
2010-08-10 07:47:17 51°10.436 2°40.756 229.6 3.5 239 11.4
2010-08-10 07:47:21 51°10.434 2°40.751 229.8 3.6 239 11.4
2010-08-10 07:47:27 51°10.431 2°40.743 229.9 3.5 239 11.2
2010-08-10 07:47:32 51°10.428 2°40.736 230.1 3.5 239 11.4